Time;durP1;ratioP1;P1;durP2;ratioP2;P2;SDS_P1;SDS_P2;PMS_P1;PMS_P2;Temp;Humidity;BMP_temperature;BMP_pressure;BME280_temperature;BME280_humidity;BME280_pressure;Samples;Min_cycle;Max_cycle;Signal;HPM_P1;HPM_P2
2021/12/20 00:01:41;;;;;;;16.80;8.15;;;24.70;99.90;;;;;;5075489;28;20430;-66
2021/12/20 00:04:08;;;;;;;14.45;8.52;;;24.80;99.90;;;;;;5075928;28;20016;-66
2021/12/20 00:06:35;;;;;;;19.08;9.35;;;24.80;99.90;;;;;;5075779;28;20032;-66
2021/12/20 00:09:02;;;;;;;17.58;10.60;;;24.80;99.90;;;;;;5075119;28;20037;-67
2021/12/20 00:11:29;;;;;;;17.90;8.43;;;24.90;99.90;;;;;;5075461;28;20153;-66
2021/12/20 00:13:55;;;;;;;13.45;7.97;;;24.80;99.90;;;;;;5075868;28;20477;-66
2021/12/20 00:16:22;;;;;;;20.13;8.13;;;24.90;99.90;;;;;;5075556;28;20028;-65
2021/12/20 00:18:49;;;;;;;15.32;7.55;;;25.00;99.90;;;;;;5075234;28;20029;-67
2021/12/20 00:21:16;;;;;;;14.82;6.82;;;24.90;99.90;;;;;;5075816;28;20035;-66
2021/12/20 00:23:42;;;;;;;10.80;6.00;;;25.00;99.90;;;;;;5075669;28;20032;-65
2021/12/20 00:26:09;;;;;;;9.75;5.60;;;25.10;99.90;;;;;;5075389;28;20489;-63
2021/12/20 00:28:38;;;;;;;9.65;5.35;;;25.20;99.90;;;;;;5075414;28;20032;-66
2021/12/20 00:31:05;;;;;;;9.27;5.30;;;25.20;99.90;;;;;;5075251;28;20093;-66
2021/12/20 00:33:36;;;;;;;10.93;6.00;;;25.20;99.90;;;;;;5075356;28;20029;-66
2021/12/20 00:36:06;;;;;;;11.55;5.18;;;25.30;99.90;;;;;;5075280;28;20016;-70
2021/12/20 00:41:13;;;;;;;9.02;4.60;;;25.40;99.90;;;;;;5074740;28;20071;-65
2021/12/20 00:43:40;;;;;;;9.52;4.65;;;25.50;99.90;;;;;;5074636;28;20095;-66
2021/12/20 00:46:07;;;;;;;13.68;4.57;;;25.50;99.90;;;;;;5074843;28;20043;-64
2021/12/20 00:48:34;;;;;;;4.65;3.70;;;25.50;99.90;;;;;;5068530;28;20037;-66
2021/12/20 00:51:01;;;;;;;8.70;4.05;;;25.60;99.90;;;;;;5068433;28;20047;-65
2021/12/20 00:53:28;;;;;;;18.15;5.18;;;25.60;99.90;;;;;;5069025;28;20020;-66
2021/12/20 00:55:54;;;;;;;9.82;5.18;;;25.70;99.90;;;;;;5064908;28;20067;-65
2021/12/20 00:58:21;;;;;;;15.23;6.80;;;25.70;99.90;;;;;;5065684;28;20055;-65
2021/12/20 01:00:58;;;;;;;13.25;5.75;;;25.80;99.90;;;;;;5055841;28;20029;-65
2021/12/20 01:03:26;;;;;;;20.60;6.97;;;25.90;99.90;;;;;;5070232;28;20039;-64
2021/12/20 01:05:53;;;;;;;11.57;7.85;;;26.00;99.90;;;;;;5074981;28;20029;-64
2021/12/20 01:08:21;;;;;;;8.20;6.97;;;26.00;99.90;;;;;;5074397;28;20028;-64
2021/12/20 01:10:52;;;;;;;12.93;7.35;;;26.00;99.90;;;;;;5069994;28;20040;-64
2021/12/20 01:13:22;;;;;;;10.07;6.13;;;26.00;99.90;;;;;;5059592;28;20513;-65
2021/12/20 01:15:52;;;;;;;13.13;5.43;;;26.00;99.90;;;;;;5074664;28;20111;-65
2021/12/20 01:18:20;;;;;;;6.80;3.67;;;26.10;99.90;;;;;;5074507;28;20389;-65
2021/12/20 01:20:47;;;;;;;9.38;3.88;;;26.10;99.90;;;;;;5074356;28;20381;-64
2021/12/20 01:23:14;;;;;;;6.60;3.35;;;26.10;99.90;;;;;;5074283;28;20031;-65
2021/12/20 01:25:42;;;;;;;10.45;3.97;;;26.30;99.90;;;;;;5074013;28;20037;-64
2021/12/20 01:28:09;;;;;;;4.05;2.92;;;26.40;99.90;;;;;;5073332;28;20038;-63
2021/12/20 01:30:37;;;;;;;15.50;4.00;;;26.40;99.90;;;;;;5073735;28;20091;-64
2021/12/20 01:33:08;;;;;;;7.03;3.40;;;26.40;99.90;;;;;;5073897;28;20036;-64
2021/12/20 01:35:35;;;;;;;18.50;4.03;;;26.40;99.90;;;;;;5073743;28;20029;-64
2021/12/20 01:38:03;;;;;;;5.45;4.07;;;26.50;99.90;;;;;;5074145;28;20029;-66
2021/12/20 01:40:30;;;;;;;7.60;4.78;;;26.60;99.90;;;;;;5073990;28;20063;-65
2021/12/20 01:42:58;;;;;;;9.48;4.97;;;26.70;99.90;;;;;;5073693;28;20469;-64
2021/12/20 01:45:28;;;;;;;6.10;3.85;;;26.80;99.90;;;;;;5074103;28;20040;-64
2021/12/20 01:48:06;;;;;;;11.98;4.22;;;26.80;99.90;;;;;;5073619;28;20110;-64
2021/12/20 01:50:46;;;;;;;10.55;4.85;;;26.90;99.90;;;;;;5074109;28;20052;-65
2021/12/20 01:53:15;;;;;;;5.65;3.65;;;27.00;99.90;;;;;;5073533;28;20478;-66
2021/12/20 01:55:42;;;;;;;19.27;3.65;;;27.10;99.90;;;;;;5072506;28;20085;-65
2021/12/20 01:58:09;;;;;;;8.10;3.72;;;27.10;99.90;;;;;;5067918;28;20077;-65
2021/12/20 02:00:37;;;;;;;8.55;4.03;;;27.20;99.90;;;;;;5073432;28;20027;-64
2021/12/20 02:03:04;;;;;;;11.50;5.28;;;27.20;99.90;;;;;;5074069;28;20380;-64
2021/12/20 02:08:18;;;;;;;8.00;3.65;;;27.50;99.90;;;;;;5073431;28;20021;-63
2021/12/20 02:10:45;;;;;;;13.35;5.47;;;27.70;99.90;;;;;;5073370;28;20512;-63
2021/12/20 02:13:13;;;;;;;5.20;3.78;;;27.70;99.90;;;;;;5073803;28;20028;-64
2021/12/20 02:15:40;;;;;;;11.98;6.47;;;27.80;99.90;;;;;;5073786;28;20028;-63
2021/12/20 02:18:07;;;;;;;28.48;5.45;;;27.90;99.90;;;;;;5073826;28;20029;-64
2021/12/20 02:20:36;;;;;;;25.48;5.70;;;28.00;99.90;;;;;;5073506;28;20124;-64
2021/12/20 02:23:05;;;;;;;14.68;4.43;;;27.90;99.90;;;;;;5073896;28;20020;-63
2021/12/20 02:25:32;;;;;;;12.38;4.10;;;27.90;99.90;;;;;;5073472;28;20058;-64
2021/12/20 02:28:07;;;;;;;14.43;6.00;;;27.90;99.90;;;;;;5073554;28;20025;-65
2021/12/20 02:30:42;;;;;;;14.80;5.40;;;28.00;99.90;;;;;;5074052;28;20032;-65
2021/12/20 02:38:28;;;;;;;18.58;5.15;;;28.30;99.90;;;;;;5073233;28;20491;-65
2021/12/20 02:41:07;;;;;;;13.10;4.13;;;28.40;99.90;;;;;;5069246;28;20078;-66
2021/12/20 02:43:38;;;;;;;6.60;3.50;;;28.50;99.90;;;;;;5058499;28;20025;-64
2021/12/20 02:46:11;;;;;;;12.65;3.30;;;28.30;99.90;;;;;;5073566;28;20074;-65
2021/12/20 02:48:38;;;;;;;25.35;16.75;;;28.20;99.90;;;;;;5072553;28;20381;-66
2021/12/20 02:51:04;;;;;;;12.05;4.63;;;28.30;99.90;;;;;;5069660;28;20032;-66
2021/12/20 02:53:31;;;;;;;7.10;3.13;;;28.60;99.90;;;;;;5053274;28;20053;-66
2021/12/20 02:55:57;;;;;;;4.43;2.90;;;28.60;99.90;;;;;;5053817;28;20028;-65
2021/12/20 02:58:24;;;;;;;5.50;2.75;;;28.70;99.90;;;;;;5073686;28;20021;-66
2021/12/20 03:00:52;;;;;;;7.03;3.10;;;28.70;99.90;;;;;;5073297;28;20066;-65
2021/12/20 03:03:18;;;;;;;3.17;2.30;;;28.70;99.90;;;;;;5073676;28;20031;-65
2021/12/20 03:05:45;;;;;;;6.25;2.72;;;29.00;99.90;;;;;;5073722;28;20051;-65
2021/12/20 03:08:12;;;;;;;14.98;3.30;;;29.10;99.90;;;;;;5073869;28;20087;-65
2021/12/20 03:10:40;;;;;;;8.45;2.85;;;29.10;99.90;;;;;;5073097;28;20098;-66
2021/12/20 03:13:06;;;;;;;6.40;2.80;;;29.30;99.90;;;;;;5071780;28;20025;-65
2021/12/20 03:15:33;;;;;;;6.25;3.45;;;29.20;99.90;;;;;;5069158;28;20036;-66
2021/12/20 03:18:00;;;;;;;7.50;3.22;;;29.10;99.90;;;;;;5067722;28;20046;-65
2021/12/20 03:20:26;;;;;;;11.27;3.50;;;29.20;99.90;;;;;;5067026;28;20031;-65
2021/12/20 03:22:53;;;;;;;13.18;4.28;;;29.40;99.90;;;;;;5073364;28;20024;-65
2021/12/20 03:25:21;;;;;;;10.35;4.63;;;29.30;99.90;;;;;;5073273;28;20028;-66
2021/12/20 03:27:47;;;;;;;7.18;2.83;;;29.50;99.90;;;;;;5073102;28;20036;-66
2021/12/20 03:30:15;;;;;;;8.10;3.22;;;29.50;99.90;;;;;;5060033;28;20044;-68
2021/12/20 03:32:42;;;;;;;9.38;3.40;;;29.50;99.90;;;;;;5060547;28;20052;-66
2021/12/20 03:35:09;;;;;;;5.20;2.88;;;29.50;99.90;;;;;;5072688;28;20029;-65
2021/12/20 03:37:36;;;;;;;6.43;2.70;;;29.50;99.90;;;;;;5068927;28;20385;-66
2021/12/20 03:40:05;;;;;;;12.70;2.75;;;29.30;99.90;;;;;;5065433;28;20374;-66
2021/12/20 03:42:32;;;;;;;7.65;2.72;;;29.30;99.90;;;;;;5067257;28;20031;-65
2021/12/20 03:44:58;;;;;;;14.93;4.85;;;29.50;99.90;;;;;;5070511;28;20024;-65
2021/12/20 03:47:25;;;;;;;5.95;3.38;;;29.70;99.90;;;;;;5072663;28;20039;-65
2021/12/20 03:49:52;;;;;;;11.32;4.13;;;29.80;99.90;;;;;;5071960;28;20105;-66
2021/12/20 03:52:18;;;;;;;11.93;4.60;;;30.00;99.90;;;;;;5072854;28;20090;-66
2021/12/20 03:54:45;;;;;;;18.38;4.18;;;29.90;99.90;;;;;;5075129;28;20025;-65
2021/12/20 03:57:11;;;;;;;15.00;4.00;;;30.00;99.90;;;;;;5076490;28;20469;-64
2021/12/20 03:59:38;;;;;;;14.77;3.75;;;30.00;99.90;;;;;;5076370;28;20537;-66
2021/12/20 04:02:06;;;;;;;5.78;3.65;;;30.00;99.90;;;;;;5075857;28;20029;-67
2021/12/20 04:04:33;;;;;;;9.45;3.00;;;30.00;99.90;;;;;;5076021;28;20055;-64
2021/12/20 04:06:59;;;;;;;6.97;3.83;;;30.00;99.90;;;;;;5076286;28;20043;-71
2021/12/20 04:09:26;;;;;;;8.02;3.05;;;29.90;99.90;;;;;;5075936;28;20131;-67
2021/12/20 04:11:53;;;;;;;9.38;5.07;;;29.90;99.90;;;;;;5076291;28;20029;-66
2021/12/20 04:14:19;;;;;;;13.75;3.63;;;30.10;99.90;;;;;;5075709;28;20113;-65
2021/12/20 04:16:46;;;;;;;19.25;5.25;;;30.20;99.90;;;;;;5075568;28;20171;-65
2021/12/20 04:19:13;;;;;;;14.10;4.93;;;30.10;99.90;;;;;;5075949;28;20032;-67
2021/12/20 04:21:39;;;;;;;40.25;24.20;;;30.10;99.90;;;;;;5075786;28;20465;-67
2021/12/20 04:24:06;;;;;;;75.05;24.50;;;30.40;99.90;;;;;;5066471;28;20028;-66
2021/12/20 04:26:33;;;;;;;15.35;4.53;;;30.60;99.90;;;;;;5067845;28;20052;-65
2021/12/20 04:28:59;;;;;;;17.30;4.90;;;30.40;99.90;;;;;;5067355;28;20115;-65
2021/12/20 04:31:28;;;;;;;12.93;3.60;;;30.40;99.90;;;;;;5070201;28;20116;-64
2021/12/20 04:33:54;;;;;;;11.00;4.45;;;30.60;99.90;;;;;;5055548;28;20385;-65
2021/12/20 04:36:21;;;;;;;9.57;3.75;;;30.70;99.90;;;;;;5077055;28;20369;-65
2021/12/20 04:38:48;;;;;;;8.13;3.63;;;30.80;99.90;;;;;;5077904;28;20036;-65
2021/12/20 04:41:14;;;;;;;13.73;3.60;;;30.80;99.90;;;;;;5067674;28;20107;-65
2021/12/20 04:43:41;;;;;;;3.15;2.75;;;30.80;99.90;;;;;;5065147;28;20135;-65
2021/12/20 04:46:08;;;;;;;9.68;4.00;;;30.90;99.90;;;;;;5065811;28;20059;-66
2021/12/20 04:48:34;;;;;;;10.95;3.03;;;30.90;99.90;;;;;;5068011;28;20131;-64
2021/12/20 04:51:05;;;;;;;14.25;3.00;;;30.90;99.90;;;;;;5063216;28;20032;-65
2021/12/20 04:53:32;;;;;;;10.00;3.58;;;31.00;99.90;;;;;;5065318;28;20033;-67
2021/12/20 04:55:58;;;;;;;6.53;3.33;;;31.30;99.90;;;;;;5069282;28;20570;-65
2021/12/20 04:58:25;;;;;;;4.10;2.65;;;31.50;99.90;;;;;;5064921;28;20048;-65
2021/12/20 05:00:52;;;;;;;9.20;4.30;;;31.60;99.90;;;;;;5066075;28;20025;-67
2021/12/20 05:03:18;;;;;;;19.25;9.23;;;31.70;99.90;;;;;;5070628;28;20382;-65
2021/12/20 05:05:45;;;;;;;14.20;5.80;;;31.60;99.90;;;;;;5069994;28;20039;-67
2021/12/20 05:08:13;;;;;;;9.00;5.57;;;31.70;99.90;;;;;;5063598;28;20104;-66
2021/12/20 05:10:41;;;;;;;6.35;4.13;;;31.70;99.90;;;;;;5067328;28;20045;-66
2021/12/20 05:13:10;;;;;;;7.22;3.72;;;31.80;99.90;;;;;;5065844;28;20032;-65
2021/12/20 05:15:38;;;;;;;17.45;4.65;;;31.60;99.50;;;;;;5062744;28;20035;-65
2021/12/20 05:18:09;;;;;;;8.60;3.45;;;31.50;99.90;;;;;;5074694;28;20027;-64
2021/12/20 05:20:36;;;;;;;4.77;3.67;;;31.50;99.90;;;;;;5064717;28;20032;-63
2021/12/20 05:23:04;;;;;;;5.97;3.67;;;31.50;99.90;;;;;;5067481;28;20048;-64
2021/12/20 05:25:31;;;;;;;5.78;4.60;;;31.60;99.20;;;;;;5062443;28;20051;-64
2021/12/20 05:27:58;;;;;;;10.57;5.28;;;31.60;98.90;;;;;;5064313;28;20461;-64
2021/12/20 05:30:25;;;;;;;15.32;5.82;;;31.60;98.60;;;;;;5063827;28;20021;-65
2021/12/20 05:32:52;;;;;;;12.27;4.25;;;31.70;99.30;;;;;;5066063;28;20029;-65
2021/12/20 05:35:21;;;;;;;15.27;5.07;;;31.60;99.30;;;;;;5069357;28;20035;-65
2021/12/20 05:37:49;;;;;;;9.45;6.28;;;31.70;98.90;;;;;;5066954;28;20032;-64
2021/12/20 05:40:17;;;;;;;14.05;4.95;;;31.80;97.00;;;;;;5064519;28;20482;-64
2021/12/20 05:42:45;;;;;;;8.90;4.00;;;32.00;96.30;;;;;;5064241;28;20032;-64
2021/12/20 05:45:12;;;;;;;7.72;4.70;;;32.20;95.00;;;;;;5063070;28;20032;-65
2021/12/20 05:47:39;;;;;;;10.07;4.63;;;32.40;94.00;;;;;;5064643;28;20107;-64
2021/12/20 05:50:08;;;;;;;12.20;5.57;;;32.50;94.30;;;;;;5066610;28;20074;-64
2021/12/20 05:52:35;;;;;;;13.38;8.48;;;32.70;94.50;;;;;;5068079;28;20094;-63
2021/12/20 05:55:03;;;;;;;11.80;7.00;;;32.80;92.50;;;;;;5065210;28;20099;-64
2021/12/20 05:57:32;;;;;;;15.23;7.95;;;32.90;91.20;;;;;;5070889;28;20051;-64
2021/12/20 06:00:00;;;;;;;8.55;4.97;;;33.00;91.80;;;;;;5071692;28;20459;-64
2021/12/20 06:02:26;;;;;;;11.68;6.50;;;32.80;90.60;;;;;;5072847;28;20028;-63
2021/12/20 06:04:53;;;;;;;18.77;10.40;;;32.80;92.10;;;;;;5075570;28;20103;-65
2021/12/20 06:07:20;;;;;;;23.90;9.82;;;33.00;91.50;;;;;;5074114;28;20469;-63
2021/12/20 06:09:48;;;;;;;18.25;9.35;;;33.20;91.90;;;;;;5072653;28;20052;-63
2021/12/20 06:12:15;;;;;;;123.13;81.53;;;33.00;90.40;;;;;;5070570;28;20043;-62
2021/12/20 06:14:42;;;;;;;42.28;23.35;;;32.80;92.20;;;;;;5064423;28;20059;-62
2021/12/20 06:17:09;;;;;;;19.42;8.07;;;32.70;92.30;;;;;;5065792;28;20036;-61
2021/12/20 06:19:35;;;;;;;19.77;6.00;;;32.60;92.20;;;;;;5058845;28;20032;-64
2021/12/20 06:22:04;;;;;;;13.32;4.00;;;32.50;91.80;;;;;;5073584;28;20017;-64
2021/12/20 06:24:31;;;;;;;10.18;4.28;;;32.40;90.70;;;;;;5072821;28;20031;-62
2021/12/20 06:26:57;;;;;;;7.50;4.10;;;32.30;90.30;;;;;;5071803;28;20397;-64
2021/12/20 06:29:24;;;;;;;9.65;4.15;;;32.20;90.30;;;;;;5053933;28;20056;-64
2021/12/20 06:31:51;;;;;;;37.38;21.27;;;32.10;91.40;;;;;;5056702;28;20025;-63
2021/12/20 06:34:18;;;;;;;34.08;25.20;;;32.10;92.10;;;;;;5060550;28;20630;-63
2021/12/20 06:36:45;;;;;;;59.03;35.10;;;32.10;92.80;;;;;;5063565;28;20243;-64
2021/12/20 06:39:12;;;;;;;49.08;32.38;;;32.10;93.00;;;;;;5060339;28;20024;-64
2021/12/20 06:41:38;;;;;;;54.65;35.15;;;32.00;91.70;;;;;;5065870;28;20035;-64
2021/12/20 06:44:05;;;;;;;26.73;16.10;;;32.00;92.90;;;;;;5067982;28;20485;-64
2021/12/20 06:46:37;;;;;;;133.05;72.30;;;31.90;92.20;;;;;;5064629;28;20036;-65
2021/12/20 06:49:05;;;;;;;;;;;31.90;92.30;;;;;;5068106;28;20653;-67
2021/12/20 06:51:35;;;;;;;54.67;31.40;;;31.80;92.80;;;;;;5065113;28;19909;-65
2021/12/20 06:54:01;;;;;;;59.95;34.80;;;31.80;94.20;;;;;;5063119;28;20530;-64
2021/12/20 06:56:28;;;;;;;20.75;15.48;;;31.90;94.30;;;;;;5062996;28;20112;-64
2021/12/20 06:58:55;;;;;;;22.45;12.23;;;31.80;95.30;;;;;;5063490;28;20135;-64
2021/12/20 07:01:22;;;;;;;18.67;11.90;;;31.20;97.40;;;;;;5064313;28;20029;-63
2021/12/20 07:03:49;;;;;;;17.88;9.95;;;30.70;98.70;;;;;;5067620;28;20033;-64
2021/12/20 07:06:16;;;;;;;20.90;13.43;;;30.50;99.90;;;;;;5073045;28;20096;-63
2021/12/20 07:08:42;;;;;;;18.48;11.02;;;30.40;99.90;;;;;;5069931;28;20041;-61
2021/12/20 07:11:10;;;;;;;20.48;13.40;;;30.40;99.90;;;;;;5065215;28;20033;-63
2021/12/20 07:13:38;;;;;;;21.80;11.07;;;30.50;99.90;;;;;;5070043;28;20166;-63
2021/12/20 07:16:05;;;;;;;30.92;19.63;;;30.50;99.90;;;;;;5058623;28;20461;-62
2021/12/20 07:18:32;;;;;;;15.63;9.32;;;30.60;99.90;;;;;;5073257;28;20043;-63
2021/12/20 07:20:58;;;;;;;131.18;84.88;;;30.40;99.90;;;;;;5072596;28;20100;-63
2021/12/20 07:23:25;;;;;;;25.08;11.65;;;30.30;99.90;;;;;;5065996;28;20020;-64
2021/12/20 07:25:52;;;;;;;42.15;28.35;;;30.30;99.90;;;;;;5065617;28;20428;-65
2021/12/20 07:28:19;;;;;;;47.42;21.27;;;30.30;99.90;;;;;;5052542;28;20044;-63
2021/12/20 07:30:47;;;;;;;17.52;10.77;;;30.50;99.90;;;;;;5070794;28;20030;-64
2021/12/20 07:33:15;;;;;;;87.65;58.70;;;30.50;99.90;;;;;;5067232;28;20024;-66
2021/12/20 07:35:43;;;;;;;83.20;57.92;;;30.50;99.90;;;;;;5057962;28;20033;-64
2021/12/20 07:38:13;;;;;;;92.45;63.78;;;30.60;99.90;;;;;;5064230;28;20017;-63
2021/12/20 07:40:45;;;;;;;65.53;39.67;;;30.70;99.90;;;;;;5068389;28;20028;-63
2021/12/20 07:43:15;;;;;;;30.52;15.05;;;30.40;99.90;;;;;;5075287;28;20020;-64
2021/12/20 07:45:43;;;;;;;27.05;14.85;;;30.10;99.90;;;;;;5058310;28;20044;-64
2021/12/20 07:48:09;;;;;;;23.58;12.27;;;30.00;99.90;;;;;;5056827;28;20390;-64
2021/12/20 07:50:36;;;;;;;23.52;15.02;;;30.00;99.90;;;;;;5056807;28;20028;-65
2021/12/20 07:53:03;;;;;;;25.58;16.35;;;29.90;99.90;;;;;;5063406;28;20028;-66
2021/12/20 07:55:30;;;;;;;24.67;16.70;;;29.90;99.90;;;;;;5076371;28;20024;-66
2021/12/20 07:57:57;;;;;;;29.23;15.85;;;29.80;99.90;;;;;;5067297;28;20040;-65
2021/12/20 08:00:24;;;;;;;15.43;8.80;;;29.60;99.90;;;;;;5067647;28;20023;-64
2021/12/20 08:02:51;;;;;;;12.75;8.02;;;29.60;99.90;;;;;;5066938;28;20049;-64
2021/12/20 08:05:19;;;;;;;20.52;12.05;;;29.50;99.90;;;;;;5064982;28;20017;-63
2021/12/20 08:07:50;;;;;;;16.15;10.02;;;29.60;99.90;;;;;;5066193;28;20461;-64
2021/12/20 08:10:23;;;;;;;16.85;7.40;;;29.60;99.90;;;;;;5072259;28;20036;-64
2021/12/20 08:12:51;;;;;;;19.50;7.97;;;29.30;99.90;;;;;;5066979;28;20021;-65
2021/12/20 08:15:19;;;;;;;14.25;5.85;;;29.30;99.90;;;;;;5069750;28;20060;-65
2021/12/20 08:17:45;;;;;;;10.15;4.95;;;29.30;99.90;;;;;;5065742;28;20521;-64
2021/12/20 08:20:12;;;;;;;9.48;4.55;;;29.30;99.90;;;;;;5071616;28;20059;-65
2021/12/20 08:22:40;;;;;;;10.70;6.32;;;29.40;99.90;;;;;;5075915;28;20540;-64
2021/12/20 08:25:08;;;;;;;15.63;6.70;;;29.50;99.90;;;;;;5075506;28;20200;-64
2021/12/20 08:27:34;;;;;;;15.23;8.27;;;29.50;99.90;;;;;;5066509;28;20131;-64
2021/12/20 08:30:02;;;;;;;19.98;7.70;;;29.60;99.90;;;;;;5069675;28;20474;-64
2021/12/20 08:32:29;;;;;;;8.93;6.03;;;29.70;99.90;;;;;;5062748;28;20055;-64
2021/12/20 08:34:55;;;;;;;13.32;6.50;;;29.70;99.90;;;;;;5066501;28;20037;-64
2021/12/20 08:37:22;;;;;;;13.50;6.35;;;29.80;99.90;;;;;;5069207;28;20024;-63
2021/12/20 08:39:49;;;;;;;11.32;5.82;;;29.80;99.90;;;;;;5064826;28;20044;-64
2021/12/20 08:42:16;;;;;;;17.60;6.80;;;29.70;99.90;;;;;;5060788;28;20035;-64
2021/12/20 08:44:42;;;;;;;16.02;7.55;;;29.80;99.90;;;;;;5060995;28;20028;-63
2021/12/20 08:47:09;;;;;;;30.70;7.53;;;29.80;99.90;;;;;;5060140;28;20033;-65
2021/12/20 08:49:36;;;;;;;28.63;17.02;;;29.90;99.90;;;;;;5065313;28;20150;-64
2021/12/20 08:52:03;;;;;;;58.78;13.43;;;29.90;99.90;;;;;;5063328;28;20074;-65
2021/12/20 08:54:30;;;;;;;17.67;7.63;;;29.90;99.90;;;;;;5066151;28;20035;-64
2021/12/20 08:56:57;;;;;;;24.40;8.80;;;29.90;99.90;;;;;;5066483;28;20132;-65
2021/12/20 08:59:24;;;;;;;25.73;13.15;;;29.90;99.90;;;;;;5063894;28;20028;-64
2021/12/20 09:01:52;;;;;;;19.52;12.48;;;29.90;99.90;;;;;;5064820;28;20373;-64
2021/12/20 09:04:19;;;;;;;53.22;35.92;;;29.90;99.90;;;;;;5070925;28;20058;-64
2021/12/20 09:06:48;;;;;;;79.65;48.35;;;29.70;99.90;;;;;;5074378;28;20036;-64
2021/12/20 09:09:16;;;;;;;50.17;32.50;;;29.70;99.90;;;;;;5074548;28;20119;-65
2021/12/20 09:11:43;;;;;;;79.25;48.35;;;29.80;99.90;;;;;;5074491;28;20037;-65
2021/12/20 09:14:10;;;;;;;93.90;63.45;;;29.90;99.90;;;;;;5074645;28;20417;-66
2021/12/20 09:16:37;;;;;;;56.28;37.78;;;30.00;99.90;;;;;;5074333;28;20024;-64
2021/12/20 09:19:04;;;;;;;27.13;11.70;;;30.00;99.90;;;;;;5074714;28;20032;-64
2021/12/20 09:21:30;;;;;;;69.70;32.83;;;30.10;99.90;;;;;;5074328;28;20031;-65
2021/12/20 09:23:57;;;;;;;24.55;13.55;;;30.30;99.90;;;;;;5074897;28;20040;-63
2021/12/20 09:26:24;;;;;;;29.30;14.50;;;30.20;99.90;;;;;;5072691;28;20042;-63
2021/12/20 09:28:51;;;;;;;23.52;11.15;;;30.10;99.90;;;;;;5067417;28;20355;-64
2021/12/20 09:31:17;;;;;;;28.02;13.07;;;30.10;99.90;;;;;;5074193;28;20128;-64
2021/12/20 09:33:44;;;;;;;21.08;10.50;;;30.20;99.90;;;;;;5074615;28;20033;-63
2021/12/20 09:36:11;;;;;;;23.38;11.25;;;30.30;99.90;;;;;;5074139;28;20151;-64
2021/12/20 09:38:37;;;;;;;24.42;12.60;;;30.40;99.90;;;;;;5074660;28;20032;-63
2021/12/20 09:43:49;;;;;;;82.65;37.50;;;30.30;99.90;;;;;;5074081;28;20390;-65
2021/12/20 09:46:18;;;;;;;67.95;52.03;;;30.40;99.90;;;;;;5074399;28;20362;-63
2021/12/20 09:48:49;;;;;;;206.25;162.30;;;30.40;99.90;;;;;;5074376;28;20462;-63
2021/12/20 09:51:17;;;;;;;40.60;21.83;;;30.30;99.90;;;;;;5073514;28;20364;-63
2021/12/20 09:53:44;;;;;;;27.05;12.73;;;30.30;99.90;;;;;;5074501;28;20029;-64
2021/12/20 09:56:12;;;;;;;21.10;10.38;;;30.30;99.90;;;;;;5073561;28;20055;-63
2021/12/20 09:58:41;;;;;;;33.88;21.52;;;30.40;99.90;;;;;;5074128;28;20040;-65
2021/12/20 10:01:13;;;;;;;38.45;22.83;;;30.30;99.90;;;;;;5073898;28;20063;-63
2021/12/20 10:03:42;;;;;;;34.05;17.73;;;30.40;99.90;;;;;;5071520;28;20033;-64
2021/12/20 10:06:09;;;;;;;30.65;13.45;;;30.40;99.90;;;;;;5072760;28;20028;-64
2021/12/20 10:08:41;;;;;;;30.20;13.25;;;30.40;99.90;;;;;;5074019;28;20032;-64
2021/12/20 10:11:22;;;;;;;28.38;13.15;;;30.30;99.90;;;;;;5068285;28;20044;-64
2021/12/20 10:13:50;;;;;;;19.20;11.85;;;30.30;99.90;;;;;;5062219;28;20356;-65
2021/12/20 10:16:23;;;;;;;20.17;10.65;;;30.10;99.90;;;;;;5062639;28;20362;-64
2021/12/20 10:18:50;;;;;;;21.25;11.27;;;30.10;99.90;;;;;;5055464;28;20064;-65
2021/12/20 10:21:17;;;;;;;27.08;8.43;;;30.10;99.90;;;;;;5070759;28;20056;-65
2021/12/20 10:23:49;;;;;;;139.63;98.72;;;30.10;99.90;;;;;;5068472;28;20481;-66
2021/12/20 10:26:19;;;;;;;;;;;30.10;99.90;;;;;;5071053;28;20055;-64
2021/12/20 10:28:47;;;;;;;27.25;21.10;;;30.10;99.90;;;;;;5072723;28;19912;-65
2021/12/20 10:31:17;;;;;;;32.72;15.40;;;29.90;99.90;;;;;;5073631;28;20032;-65
2021/12/20 10:33:53;;;;;;;42.63;30.02;;;29.90;99.90;;;;;;5072844;28;20056;-66
2021/12/20 10:36:20;;;;;;;35.05;26.20;;;29.90;99.90;;;;;;5073789;28;20036;-64
2021/12/20 10:38:56;;;;;;;20.08;11.80;;;30.00;99.90;;;;;;5072888;28;20108;-65
2021/12/20 10:41:35;;;;;;;44.80;28.00;;;29.90;99.90;;;;;;5062540;28;20028;-66
2021/12/20 10:44:14;;;;;;;74.07;54.47;;;29.90;99.90;;;;;;5071764;28;20051;-66
2021/12/20 10:46:47;;;;;;;56.40;40.20;;;30.00;99.90;;;;;;5073208;28;20544;-66
2021/12/20 10:49:15;;;;;;;42.35;16.02;;;30.00;99.90;;;;;;5073903;28;20040;-65
2021/12/20 10:51:48;;;;;;;26.33;14.73;;;29.90;99.90;;;;;;5073440;28;20032;-65
2021/12/20 10:54:19;;;;;;;24.20;14.48;;;29.90;99.90;;;;;;5072610;28;20040;-64
2021/12/20 10:56:58;;;;;;;25.77;14.07;;;29.70;99.90;;;;;;5073268;28;20120;-64
2021/12/20 10:59:28;;;;;;;22.63;13.48;;;29.80;99.90;;;;;;5073882;28;20319;-65
2021/12/20 11:04:28;;;;;;;30.45;15.18;;;29.70;99.90;;;;;;5076019;28;20028;-67
2021/12/20 11:09:39;;;;;;;57.05;40.97;;;29.60;99.90;;;;;;5074607;28;20186;-65
2021/12/20 11:12:10;;;;;;;30.83;18.30;;;29.60;99.90;;;;;;5077158;28;20036;-66
2021/12/20 11:14:40;;;;;;;26.75;16.92;;;29.50;99.90;;;;;;5075234;28;20090;-65
2021/12/20 11:17:09;;;;;;;24.05;17.60;;;29.50;99.90;;;;;;5076722;28;20033;-63
2021/12/20 11:19:38;;;;;;;24.65;15.93;;;29.40;99.90;;;;;;5073059;28;20033;-65
2021/12/20 11:22:11;;;;;;;94.47;73.10;;;29.50;99.90;;;;;;5075097;28;20028;-64
2021/12/20 11:24:46;;;;;;;54.42;43.90;;;29.50;99.90;;;;;;5076622;28;20029;-65
2021/12/20 11:27:16;;;;;;;64.43;50.95;;;29.50;99.90;;;;;;5074866;28;20363;-65
2021/12/20 11:29:45;;;;;;;258.80;204.98;;;29.40;99.90;;;;;;5076918;28;20028;-65
2021/12/20 11:32:13;;;;;;;32.60;23.88;;;29.40;99.90;;;;;;5076815;28;20068;-65
2021/12/20 11:34:42;;;;;;;86.30;56.10;;;29.50;99.90;;;;;;5080637;28;20036;-65
2021/12/20 11:37:11;;;;;;;118.07;59.63;;;29.40;99.90;;;;;;5070454;28;20111;-64
2021/12/20 11:39:38;;;;;;;41.67;20.80;;;29.40;99.90;;;;;;5076883;28;20108;-64
2021/12/20 11:42:07;;;;;;;73.68;44.45;;;29.50;99.90;;;;;;5073886;28;20449;-64
2021/12/20 11:44:36;;;;;;;36.88;22.83;;;29.50;99.90;;;;;;5065921;28;20424;-64
2021/12/20 11:47:42;;;;;;;63.17;35.35;;;29.50;99.90;;;;;;5062416;28;20028;-64
2021/12/20 11:50:12;;;;;;;47.95;28.85;;;29.40;99.90;;;;;;5065866;28;20025;-64
2021/12/20 11:52:42;;;;;;;37.17;21.65;;;29.40;99.90;;;;;;5075735;28;20447;-64
2021/12/20 11:55:17;;;;;;;36.53;20.85;;;29.40;99.90;;;;;;5076082;28;20465;-65
2021/12/20 11:57:47;;;;;;;31.52;20.33;;;29.40;99.90;;;;;;5074638;28;20036;-64
2021/12/20 12:00:32;;;;;;;33.30;21.63;;;29.30;99.90;;;;;;5075819;28;20036;-63
2021/12/20 12:03:04;;;;;;;36.17;20.70;;;29.30;99.90;;;;;;5075096;28;20025;-64
2021/12/20 12:05:48;;;;;;;39.72;24.20;;;29.20;99.90;;;;;;5064523;28;20032;-63
2021/12/20 12:08:36;;;;;;;31.38;18.38;;;29.20;99.90;;;;;;5070202;28;20032;-64
2021/12/20 12:11:25;;;;;;;28.55;17.70;;;29.10;99.90;;;;;;5070667;28;20047;-64
2021/12/20 12:14:18;;;;;;;30.52;19.98;;;29.10;99.90;;;;;;5070357;28;20054;-64
2021/12/20 12:16:58;;;;;;;56.47;36.50;;;29.10;99.90;;;;;;5074870;28;20036;-64
2021/12/20 12:19:48;;;;;;;159.68;109.63;;;29.10;99.90;;;;;;5063478;28;20079;-65
2021/12/20 12:22:32;;;;;;;64.40;44.28;;;29.00;99.90;;;;;;5069517;28;20024;-63
2021/12/20 12:24:59;;;;;;;96.15;61.10;;;29.00;99.90;;;;;;5065771;28;20035;-63
2021/12/20 12:27:28;;;;;;;91.15;67.30;;;29.10;99.90;;;;;;5065664;28;20100;-66
2021/12/20 12:30:13;;;;;;;302.38;252.88;;;29.00;99.90;;;;;;5064513;28;20039;-66
2021/12/20 12:33:18;;;;;;;83.45;46.00;;;28.90;99.90;;;;;;5064713;28;20020;-62
2021/12/20 12:35:49;;;;;;;57.97;32.10;;;28.80;99.90;;;;;;5079528;28;20039;-64
2021/12/20 12:38:33;;;;;;;89.38;48.25;;;28.90;99.90;;;;;;5083820;28;20471;-64
2021/12/20 12:43:47;;;;;;;33.35;19.30;;;28.80;99.90;;;;;;5076672;28;20028;-69
2021/12/20 12:46:14;;;;;;;22.17;16.63;;;28.90;99.90;;;;;;5086300;28;20092;-66
2021/12/20 12:48:47;;;;;;;25.73;16.73;;;28.70;99.90;;;;;;5091988;28;20028;-67
2021/12/20 12:51:37;;;;;;;69.43;47.05;;;28.70;99.90;;;;;;5061483;28;20055;-69
2021/12/20 12:54:04;;;;;;;25.77;19.40;;;28.50;99.90;;;;;;5056226;28;20028;-66
2021/12/20 12:56:31;;;;;;;24.85;17.58;;;28.50;99.90;;;;;;5073601;28;20038;-67
2021/12/20 12:59:22;;;;;;;25.55;18.33;;;28.60;99.90;;;;;;5070126;28;20020;-68
2021/12/20 13:01:56;;;;;;;26.38;17.73;;;28.70;99.90;;;;;;5074708;28;20028;-67
2021/12/20 13:04:46;;;;;;;21.70;16.75;;;28.80;99.90;;;;;;5076286;28;20021;-69
2021/12/20 13:07:18;;;;;;;60.25;40.90;;;28.80;99.90;;;;;;5074556;28;20028;-68